Victor Harbour, South Australia

2:42 PM ACDT on November 26, 2014 (GMT +1030)
Currency Creek | Change Station
CLOSE
Current Station
Personal Weather Station
Location: Goolwa Beach, SOUTH AUSTRALIA
Elevation: 20 ft
Nearby Weather Stations

Elev 20 ft 35.46 °S, 138.86 °E | Updated 6 seconds ago

Partly Cloudy
Partly Cloudy
65.7 °F
Feels Like 65.7 °F
N
14.5
Wind Variable Wind from South
Gusts 17.4 mph

Today
High -- | Low -- °F
--% Chance of Precip.
Yesterday
High -- | Low -- °F
Precip. -- in
5:54 AM 8:10 PM
Waxing Crescent, 16% visible
Pressure 30.18 in
Visibility 6.2 miles
Clouds Few 4000 ft
Dew Point 51 °F
Humidity 60%
Rainfall 0.00 in
Snow Depth Not available.
UV 9.0 out of 12
Pollen Not available.
Air Quality Not available.
Flu Activity Not available.
METAR YPAD 260400Z 23018KT 9999 FEW040 20/11 Q1022 FM0630 15012KT CAVOK

More Conditions Fewer Conditions

Pressure 30.18 in
Visibility 6.2 miles
Clouds Few 4000 ft
Dew Point 51 °F
Humidity 60%
Rainfall 0.00 in
Snow Depth Not available.
UV 9.0 out of 12
Pollen Not available.
Air Quality Not available.
Flu Activity Not available.
METAR YPAD 260400Z 23018KT 9999 FEW040 20/11 Q1022 FM0630 15012KT CAVOK

More Conditions Fewer Conditions

10-Day Weather Forecast

Almanac

Astronomy

Nov. 26, 2014 Rise Set
Actual Time
Civil Twilight
Nautical Twilight
Astronomical Twilight
Moon
Length of Visible Light
Length of Day
Tomorrow will be .
, % of the Moon is Illuminated

Today's Extremes

Country Highs Country Lows

Community

WunderPhotos

Upload Photos

1,773,679 photos uploaded!

WunderBlogs® & News

Nearby

Air Quality

  Air Quality AQ Index Pollutant
Not available.

Snow Depth

Station Depth Elevation

Earthquake Activity

City Distance Mag. Time & Date
Minimum magnitude displayed is 2.5.

Coastal Water Temperatures

Place Temperature

Nearby Weather Stations